createdAt,value
2019-02-14T00:02:28.546Z,10.95
2019-02-14T00:04:57.568Z,12.82
2019-02-14T00:07:26.591Z,10.78
2019-02-14T00:20:32.857Z,10.60
2019-02-14T00:23:01.858Z,10.58
2019-02-14T00:25:30.844Z,20.00
2019-02-14T00:27:59.922Z,21.25
2019-02-14T00:30:28.925Z,13.13
2019-02-14T00:32:57.966Z,19.35
2019-02-14T00:35:26.987Z,13.93
2019-02-14T00:37:55.978Z,14.63
2019-02-14T00:40:25.020Z,13.05
2019-02-14T00:42:54.003Z,15.10
2019-02-14T00:45:23.018Z,15.75
2019-02-14T00:47:52.035Z,16.55
2019-02-14T00:50:21.055Z,14.55
2019-02-14T00:52:50.042Z,15.72
2019-02-14T00:55:19.042Z,10.30
2019-02-14T00:57:49.945Z,16.35
2019-02-14T01:00:18.952Z,14.68
2019-02-14T01:02:47.932Z,15.32
2019-02-14T01:05:16.921Z,15.55
2019-02-14T01:07:45.983Z,14.90
2019-02-14T01:10:14.993Z,9.58
2019-02-14T01:12:44.176Z,9.53
2019-02-14T01:15:14.229Z,9.70
2019-02-14T01:17:43.215Z,10.63
2019-02-14T01:20:12.215Z,11.38
2019-02-14T01:22:41.211Z,16.62
2019-02-14T01:25:10.200Z,16.12
2019-02-14T01:27:39.222Z,10.50
2019-02-14T01:30:09.238Z,14.10
2019-02-14T01:32:38.217Z,14.40
2019-02-14T01:35:07.476Z,14.45
2019-02-14T01:37:36.456Z,16.45
2019-02-14T01:40:05.703Z,14.58
2019-02-14T01:42:34.700Z,16.85
2019-02-14T01:45:03.738Z,15.50
2019-02-14T01:47:32.732Z,14.38
2019-02-14T01:50:01.748Z,15.75
2019-02-14T01:52:30.744Z,14.45
2019-02-14T01:54:59.721Z,15.72
2019-02-14T01:57:28.701Z,11.95
2019-02-14T01:59:57.707Z,15.32
2019-02-14T02:02:26.754Z,14.53
2019-02-14T02:04:55.768Z,16.15
2019-02-14T02:07:24.757Z,11.10
2019-02-14T02:09:55.499Z,15.05
2019-02-14T02:12:24.488Z,11.40
2019-02-14T02:14:53.480Z,13.78
2019-02-14T02:17:22.475Z,11.57
2019-02-14T02:19:51.569Z,14.65
2019-02-14T02:22:20.567Z,12.00
2019-02-14T02:24:49.579Z,13.68
2019-02-14T02:27:18.561Z,16.25
2019-02-14T02:29:47.554Z,17.48
2019-02-14T02:32:16.544Z,17.65
2019-02-14T02:34:45.616Z,10.25
2019-02-14T02:37:14.613Z,16.57
2019-02-14T02:39:43.574Z,16.37
2019-02-14T02:42:12.567Z,15.15
2019-02-14T02:44:41.573Z,13.28
2019-02-14T02:47:10.578Z,14.20
2019-02-14T02:49:39.538Z,15.35
2019-02-14T02:52:08.524Z,16.90
2019-02-14T02:54:37.527Z,14.68
2019-02-14T02:57:06.521Z,17.82
2019-02-14T02:59:35.572Z,10.98
2019-02-14T03:02:04.559Z,13.03
2019-02-14T03:04:33.534Z,9.43
2019-02-14T03:07:02.522Z,13.90
2019-02-14T03:09:31.513Z,15.23
2019-02-14T03:12:00.544Z,11.78
2019-02-14T03:14:29.501Z,11.43
2019-02-14T03:16:58.475Z,18.30
2019-02-14T03:19:27.467Z,13.90
2019-02-14T03:21:56.503Z,12.35
2019-02-14T03:24:25.502Z,9.73
2019-02-14T03:26:54.513Z,12.85
2019-02-14T03:29:23.506Z,14.35
2019-02-14T03:31:52.527Z,11.45
2019-02-14T03:34:21.518Z,12.88
2019-02-14T03:36:50.523Z,15.18
2019-02-14T03:39:19.511Z,20.85
2019-02-14T03:41:48.490Z,32.53
2019-02-14T03:44:17.478Z,29.95
2019-02-14T03:46:46.480Z,21.75
2019-02-14T03:49:15.466Z,21.40
2019-02-14T03:51:44.492Z,21.10
2019-02-14T03:54:13.470Z,21.60
2019-02-14T03:56:42.452Z,14.87
2019-02-14T03:59:11.464Z,21.62
2019-02-14T04:01:40.470Z,20.52
2019-02-14T04:04:09.462Z,17.70
2019-02-14T04:06:38.465Z,18.60
2019-02-14T04:09:08.618Z,22.35
2019-02-14T04:11:37.649Z,16.40
2019-02-14T04:14:06.654Z,14.93
2019-02-14T04:16:35.649Z,19.80
2019-02-14T04:19:04.644Z,12.93
2019-02-14T04:21:33.623Z,10.68
2019-02-14T04:24:02.622Z,12.50
2019-02-14T04:26:31.635Z,11.45
2019-02-14T04:29:00.644Z,17.35
2019-02-14T04:31:29.623Z,10.98
2019-02-14T04:33:58.609Z,9.07
2019-02-14T04:36:35.538Z,21.25
2019-02-14T04:38:58.363Z,16.50
2019-02-14T04:41:27.355Z,10.58
2019-02-14T04:43:56.405Z,13.75
2019-02-14T04:46:25.402Z,17.52
2019-02-14T04:48:54.386Z,17.05
2019-02-14T04:51:23.394Z,18.82
2019-02-14T04:53:52.407Z,18.57
2019-02-14T04:56:21.405Z,18.77
2019-02-14T04:58:50.398Z,17.25
2019-02-14T05:01:19.424Z,18.52
2019-02-14T05:03:48.399Z,16.15
2019-02-14T05:06:17.392Z,17.50
2019-02-14T05:08:46.395Z,18.60
2019-02-14T05:11:15.392Z,17.65
2019-02-14T05:13:44.376Z,11.73
2019-02-14T05:16:13.371Z,11.40
2019-02-14T05:18:42.392Z,13.00
2019-02-14T05:21:11.400Z,15.90
2019-02-14T05:23:40.420Z,15.85
2019-02-14T05:26:09.409Z,9.90
2019-02-14T05:28:38.403Z,13.45
2019-02-14T05:31:07.391Z,11.20
2019-02-14T05:33:36.395Z,9.90
2019-02-14T05:36:05.399Z,10.65
2019-02-14T05:38:34.416Z,11.28
2019-02-14T05:41:03.455Z,14.45
2019-02-14T05:43:32.429Z,23.55
2019-02-14T05:46:01.421Z,10.25
2019-02-14T05:48:30.432Z,16.25
2019-02-14T05:50:59.425Z,15.38
2019-02-14T05:53:28.506Z,17.55
2019-02-14T05:55:57.537Z,15.18
2019-02-14T05:58:26.540Z,12.15
2019-02-14T06:00:55.564Z,17.32
2019-02-14T06:03:24.568Z,11.75
2019-02-14T06:05:53.551Z,12.50
2019-02-14T06:08:23.526Z,10.78
2019-02-14T06:10:52.583Z,16.80
2019-02-14T06:13:21.572Z,14.90
2019-02-14T06:15:50.574Z,15.48
2019-02-14T06:18:19.585Z,11.35
2019-02-14T06:20:48.568Z,15.45
2019-02-14T06:23:17.610Z,14.55
2019-02-14T06:25:46.594Z,12.65
2019-02-14T06:28:15.683Z,13.38
2019-02-14T06:30:44.681Z,10.85
2019-02-14T06:33:13.685Z,10.08
2019-02-14T06:35:42.707Z,15.68
2019-02-14T06:38:11.729Z,9.98
2019-02-14T06:40:40.759Z,16.73
2019-02-14T06:43:09.786Z,10.32
2019-02-14T06:45:38.770Z,12.50
2019-02-14T06:48:07.781Z,9.73
2019-02-14T06:50:36.823Z,11.33
2019-02-14T06:53:05.813Z,15.03
2019-02-14T06:55:34.799Z,16.48
2019-02-14T06:58:03.834Z,12.00
2019-02-14T07:00:32.870Z,18.02
2019-02-14T07:03:01.832Z,14.60
2019-02-14T07:05:30.824Z,13.70
2019-02-14T07:07:59.845Z,13.32
2019-02-14T07:10:28.846Z,16.60
2019-02-14T07:12:57.838Z,11.57
2019-02-14T07:15:26.886Z,11.10
2019-02-14T07:17:55.859Z,11.65
2019-02-14T07:20:24.847Z,14.07
2019-02-14T07:22:53.860Z,10.93
2019-02-14T07:25:22.890Z,12.07
2019-02-14T07:27:51.922Z,12.90
2019-02-14T07:30:21.386Z,11.40
2019-02-14T07:32:50.415Z,13.58
2019-02-14T07:35:19.437Z,13.58
2019-02-14T07:37:48.408Z,12.35
2019-02-14T07:40:17.448Z,11.75
2019-02-14T07:42:46.433Z,10.93
2019-02-14T07:45:15.441Z,11.08
2019-02-14T07:47:44.437Z,11.28
2019-02-14T07:50:13.525Z,12.88
2019-02-14T07:52:42.534Z,12.55
2019-02-14T08:05:35.729Z,12.63
2019-02-14T08:08:04.721Z,13.40
2019-02-14T08:10:33.732Z,15.45
2019-02-14T08:13:02.730Z,14.73
2019-02-14T08:15:31.733Z,14.95
2019-02-14T08:18:00.764Z,15.38
2019-02-14T08:20:29.806Z,16.20
2019-02-14T08:22:58.786Z,17.15
2019-02-14T08:25:27.843Z,18.65
2019-02-14T08:27:56.886Z,19.02
2019-02-14T08:30:25.831Z,17.55
2019-02-14T08:32:54.862Z,20.88
2019-02-14T08:35:23.926Z,24.07
2019-02-14T08:37:54.004Z,21.70
2019-02-14T08:40:24.403Z,19.37
2019-02-14T08:42:53.421Z,24.40
2019-02-14T08:45:22.407Z,18.92
2019-02-14T08:47:51.420Z,18.87
2019-02-14T08:50:20.409Z,18.70
2019-02-14T08:52:49.412Z,21.10
2019-02-14T08:55:18.391Z,18.42
2019-02-14T08:57:47.407Z,18.52
2019-02-14T09:00:16.460Z,18.92
2019-02-14T09:02:45.442Z,18.15
2019-02-14T09:05:14.467Z,15.43
2019-02-14T09:07:43.505Z,16.70
2019-02-14T09:10:13.241Z,16.02
2019-02-14T09:12:42.208Z,17.55
2019-02-14T09:15:11.337Z,18.42
2019-02-14T09:17:40.385Z,15.38
2019-02-14T09:20:11.086Z,16.65
2019-02-14T09:22:40.112Z,15.58
2019-02-14T09:25:09.178Z,15.03
2019-02-14T09:27:38.170Z,15.83
2019-02-14T09:30:07.214Z,15.20
2019-02-14T09:32:36.210Z,14.23
2019-02-14T09:35:05.584Z,15.43
2019-02-14T09:37:34.590Z,13.18
2019-02-14T09:40:03.568Z,13.28
2019-02-14T09:42:32.582Z,14.13
2019-02-14T09:45:01.599Z,11.93
2019-02-14T09:47:30.614Z,11.97
2019-02-14T09:49:59.601Z,12.90
2019-02-14T09:52:28.667Z,11.68
2019-02-14T09:54:57.670Z,15.05
2019-02-14T09:57:26.650Z,14.00
2019-02-14T09:59:55.659Z,13.98
2019-02-14T10:02:25.891Z,13.40
2019-02-14T10:04:55.209Z,17.10
2019-02-14T10:07:24.244Z,14.83
2019-02-14T10:09:53.297Z,14.15
2019-02-14T10:12:22.277Z,13.72
2019-02-14T10:14:51.302Z,15.93
2019-02-14T10:17:22.176Z,15.32
2019-02-14T10:19:51.033Z,12.10
2019-02-14T10:22:20.075Z,14.20
2019-02-14T10:24:49.095Z,14.45
2019-02-14T10:27:18.106Z,14.28
2019-02-14T10:29:47.104Z,14.33
2019-02-14T10:32:16.221Z,13.53
2019-02-14T10:34:45.230Z,13.30
2019-02-14T10:37:14.256Z,13.88
2019-02-14T10:39:43.272Z,13.15
2019-02-14T10:42:12.318Z,13.03
2019-02-14T10:44:41.298Z,12.58
2019-02-14T10:47:10.302Z,13.55
2019-02-14T10:49:39.340Z,11.78
2019-02-14T10:52:08.340Z,10.15
2019-02-14T10:54:37.433Z,12.93
2019-02-14T10:57:06.490Z,13.30
2019-02-14T10:59:35.493Z,11.73
2019-02-14T11:02:04.514Z,10.48
2019-02-14T11:04:33.540Z,11.33
2019-02-14T11:07:02.543Z,12.00
2019-02-14T11:09:31.559Z,12.28
2019-02-14T11:12:00.561Z,12.03
2019-02-14T11:14:29.632Z,9.68
2019-02-14T11:16:58.641Z,10.30
2019-02-14T11:19:27.647Z,11.12
2019-02-14T11:21:56.630Z,10.48
2019-02-14T11:24:25.713Z,11.20
2019-02-14T11:26:54.650Z,11.70
2019-02-14T11:29:23.683Z,10.13
2019-02-14T11:31:52.685Z,9.48
2019-02-14T11:34:21.761Z,10.60
2019-02-14T11:36:50.758Z,9.88
2019-02-14T11:39:19.756Z,10.65
2019-02-14T11:41:48.782Z,9.85
2019-02-14T11:44:17.794Z,10.10
2019-02-14T11:46:51.488Z,8.08
2019-02-14T11:49:17.502Z,9.88
2019-02-14T11:51:46.526Z,9.20
2019-02-14T11:54:15.562Z,8.53
2019-02-14T11:56:44.544Z,8.75
2019-02-14T11:59:13.538Z,8.78
2019-02-14T12:01:42.571Z,8.53
2019-02-14T12:04:11.571Z,8.18
2019-02-14T12:06:40.648Z,7.75
2019-02-14T12:09:09.677Z,8.93
2019-02-14T12:11:38.838Z,8.35
2019-02-14T12:14:07.912Z,8.48
2019-02-14T12:16:36.940Z,7.15
2019-02-14T12:19:05.971Z,8.55
2019-02-14T12:21:34.995Z,7.05
2019-02-14T12:24:04.041Z,6.30
2019-02-14T12:26:33.047Z,8.23
2019-02-14T12:29:02.078Z,5.40
2019-02-14T12:31:31.097Z,6.10
2019-02-14T12:34:00.161Z,7.33
2019-02-14T12:36:29.144Z,6.30
2019-02-14T12:38:58.173Z,5.20
2019-02-14T12:41:27.248Z,5.30
2019-02-14T12:43:56.277Z,5.03
2019-02-14T12:46:25.309Z,4.20
2019-02-14T12:48:54.357Z,2.98
2019-02-14T12:51:23.376Z,2.77
2019-02-14T12:54:43.510Z,2.83
2019-02-14T12:57:13.110Z,3.60
2019-02-14T12:59:42.098Z,3.40
2019-02-14T13:02:11.171Z,2.60
2019-02-14T13:04:43.192Z,2.70
2019-02-14T13:07:12.412Z,2.92
2019-02-14T13:09:41.834Z,2.98
2019-02-14T13:12:11.046Z,3.30
2019-02-14T13:14:40.240Z,3.08
2019-02-14T13:17:09.436Z,3.10
2019-02-14T13:19:38.462Z,3.12
2019-02-14T13:22:07.827Z,2.60
2019-02-14T13:24:36.884Z,2.60
2019-02-14T13:27:06.000Z,2.80
2019-02-14T13:29:34.982Z,2.72
2019-02-14T13:32:03.993Z,3.12
2019-02-14T13:34:33.021Z,2.80
2019-02-14T13:37:02.339Z,2.58
2019-02-14T13:39:32.693Z,2.35
2019-02-14T13:42:01.882Z,2.52
2019-02-14T13:44:30.905Z,2.30
2019-02-14T13:46:59.967Z,2.95
2019-02-14T13:49:29.035Z,2.10
2019-02-14T13:51:58.054Z,2.50
2019-02-14T13:54:27.084Z,2.47
2019-02-14T13:56:56.093Z,2.72
2019-02-14T13:59:25.129Z,2.62
2019-02-14T14:01:54.150Z,2.30
2019-02-14T14:04:23.157Z,3.35
2019-02-14T14:06:52.192Z,2.20
2019-02-14T14:09:21.262Z,3.40
2019-02-14T14:11:50.255Z,3.17
2019-02-14T14:14:19.333Z,2.37
2019-02-14T14:16:48.332Z,3.45
2019-02-14T14:19:17.328Z,2.40
2019-02-14T14:21:46.365Z,3.15
2019-02-14T14:24:16.624Z,3.40
2019-02-14T14:26:45.607Z,3.40
2019-02-14T14:29:14.638Z,2.37
2019-02-14T14:31:43.659Z,2.20
2019-02-14T14:34:12.687Z,3.20
2019-02-14T14:36:41.710Z,2.70
2019-02-14T14:39:10.707Z,2.98
2019-02-14T14:41:39.723Z,2.92
2019-02-14T14:44:18.640Z,2.65
2019-02-14T14:47:00.332Z,2.80
2019-02-14T14:49:29.344Z,1.87
2019-02-14T14:51:58.428Z,3.05
2019-02-14T14:54:27.532Z,3.40
2019-02-14T14:56:56.578Z,2.37
2019-02-14T14:59:25.643Z,2.98
2019-02-14T15:01:54.641Z,2.90
2019-02-14T15:04:23.703Z,2.80
2019-02-14T15:06:52.709Z,2.72
2019-02-14T15:09:21.747Z,2.50
2019-02-14T15:11:50.913Z,3.20
2019-02-14T15:14:19.968Z,3.77
2019-02-14T15:16:48.966Z,2.70
2019-02-14T15:19:17.965Z,2.30
2019-02-14T15:21:47.785Z,2.98
2019-02-14T15:24:16.807Z,3.30
2019-02-14T15:26:45.875Z,2.70
2019-02-14T15:29:14.931Z,2.90
2019-02-14T15:31:43.948Z,2.20
2019-02-14T15:34:12.992Z,3.52
2019-02-14T15:36:42.020Z,2.58
2019-02-14T15:39:11.034Z,3.02
2019-02-14T15:41:40.026Z,2.80
2019-02-14T15:44:09.104Z,2.98
2019-02-14T15:46:38.212Z,3.62
2019-02-14T15:49:07.196Z,3.30
2019-02-14T15:51:36.232Z,3.10
2019-02-14T15:54:07.316Z,2.75
2019-02-14T15:56:36.120Z,2.70
2019-02-14T15:59:05.239Z,2.75
2019-02-14T16:01:34.294Z,3.25
2019-02-14T16:04:04.900Z,4.00
2019-02-14T16:06:34.055Z,3.30
2019-02-14T16:09:04.160Z,3.60
2019-02-14T16:11:34.010Z,2.70
2019-02-14T16:14:04.986Z,3.70
2019-02-14T16:16:35.120Z,3.42
2019-02-14T16:19:04.275Z,3.17
2019-02-14T16:21:33.802Z,3.55
2019-02-14T16:24:02.799Z,5.42
2019-02-14T16:26:31.901Z,4.87
2019-02-14T16:29:02.023Z,4.62
2019-02-14T16:31:31.968Z,4.03
2019-02-14T16:34:01.101Z,3.62
2019-02-14T16:36:32.387Z,4.00
2019-02-14T16:39:01.474Z,3.00
2019-02-14T16:41:30.610Z,3.22
2019-02-14T16:43:59.639Z,3.30
2019-02-14T16:46:28.824Z,4.17
2019-02-14T16:48:57.954Z,3.83
2019-02-14T16:51:27.152Z,3.62
2019-02-14T16:53:56.295Z,4.10
2019-02-14T16:56:25.328Z,3.80
2019-02-14T16:58:54.724Z,3.42
2019-02-14T17:01:28.163Z,3.30
2019-02-14T17:03:57.417Z,4.33
2019-02-14T17:06:26.505Z,3.70
2019-02-14T17:08:55.686Z,2.98
2019-02-14T17:11:24.717Z,2.98
2019-02-14T17:13:53.862Z,3.15
2019-02-14T17:16:22.846Z,5.65
2019-02-14T17:18:51.958Z,3.98
2019-02-14T17:21:20.967Z,5.00
2019-02-14T17:23:49.989Z,5.17
2019-02-14T17:26:19.298Z,4.70
2019-02-14T17:28:48.626Z,4.62
2019-02-14T17:31:17.710Z,3.87
2019-02-14T17:33:46.745Z,4.20
2019-02-14T17:36:15.854Z,4.10
2019-02-14T17:38:44.913Z,5.92
2019-02-14T17:41:13.997Z,5.65
2019-02-14T17:43:43.342Z,3.95
2019-02-14T17:46:14.906Z,4.67
2019-02-14T17:48:44.167Z,4.10
2019-02-14T17:51:13.484Z,5.28
2019-02-14T17:53:42.886Z,3.52
2019-02-14T17:56:12.295Z,3.80
2019-02-14T17:58:41.876Z,3.80
2019-02-14T18:01:11.230Z,3.62
2019-02-14T18:03:40.596Z,4.28
2019-02-14T18:06:10.322Z,4.22
2019-02-14T18:08:40.188Z,5.45
2019-02-14T18:11:09.576Z,4.70
2019-02-14T18:13:39.602Z,5.00
2019-02-14T18:16:10.360Z,4.65
2019-02-14T18:18:40.566Z,4.37
2019-02-14T18:21:10.285Z,4.00
2019-02-14T18:23:39.826Z,5.03
2019-02-14T18:26:09.453Z,5.35
2019-02-14T18:28:39.040Z,5.53
2019-02-14T18:31:09.567Z,4.80
2019-02-14T18:33:40.285Z,5.50
2019-02-14T18:36:10.007Z,4.92
2019-02-14T18:38:40.074Z,5.15
2019-02-14T18:41:09.993Z,3.80
2019-02-14T18:43:40.119Z,4.65
2019-02-14T18:46:10.566Z,4.83
2019-02-14T18:48:40.916Z,4.80
2019-02-14T18:51:11.015Z,3.70
2019-02-14T18:53:40.816Z,5.72
2019-02-14T18:56:11.093Z,4.30
2019-02-14T18:58:42.226Z,5.65
2019-02-14T19:01:12.958Z,4.15
2019-02-14T19:03:44.502Z,4.65
2019-02-14T19:06:16.731Z,4.22
2019-02-14T19:08:48.508Z,5.15
2019-02-14T19:11:25.294Z,5.22
2019-02-14T19:13:59.393Z,5.12
2019-02-14T19:16:32.594Z,4.83
2019-02-14T19:19:05.848Z,5.25
2019-02-14T19:21:37.836Z,4.75
2019-02-14T19:24:12.042Z,4.65
2019-02-14T19:26:45.247Z,4.53
2019-02-14T19:29:17.807Z,4.37
2019-02-14T19:31:49.715Z,5.80
2019-02-14T19:34:22.540Z,4.83
2019-02-14T19:36:55.213Z,6.40
2019-02-14T19:39:26.713Z,6.20
2019-02-14T19:41:58.180Z,5.58
2019-02-14T19:44:28.678Z,6.33
2019-02-14T19:47:02.845Z,5.10
2019-02-14T19:49:39.797Z,4.42
2019-02-14T19:52:12.589Z,5.30
2019-02-14T19:54:45.342Z,4.70
2019-02-14T19:57:16.733Z,4.12
2019-02-14T19:59:48.221Z,4.72
2019-02-14T20:02:31.476Z,5.72
2019-02-14T20:05:02.855Z,5.95
2019-02-14T20:07:36.431Z,5.28
2019-02-14T20:10:09.507Z,4.50
2019-02-14T20:12:40.361Z,4.83
2019-02-14T20:15:13.458Z,4.85
2019-02-14T20:17:43.556Z,4.47
2019-02-14T20:20:16.936Z,4.28
2019-02-14T20:22:47.405Z,4.25
2019-02-14T20:25:18.557Z,4.75
2019-02-14T20:27:49.974Z,5.78
2019-02-14T20:30:24.947Z,7.17
2019-02-14T20:33:03.936Z,6.65
2019-02-14T20:35:26.374Z,5.58
2019-02-14T20:37:56.545Z,5.22
2019-02-14T20:40:32.062Z,6.30
2019-02-14T20:43:01.913Z,6.62
2019-02-14T20:45:32.044Z,7.40
2019-02-14T20:48:01.620Z,6.97
2019-02-14T20:50:31.574Z,6.97
2019-02-14T20:53:00.928Z,7.65
2019-02-14T20:55:30.503Z,7.10
2019-02-14T20:58:00.056Z,5.15
2019-02-14T21:00:38.464Z,4.80
2019-02-14T21:03:08.034Z,6.78
2019-02-14T21:05:37.712Z,7.72
2019-02-14T21:08:07.286Z,5.37
2019-02-14T21:10:36.924Z,7.75
2019-02-14T21:13:06.203Z,9.08
2019-02-14T21:15:35.371Z,7.42
2019-02-14T21:18:04.704Z,9.00
2019-02-14T21:20:34.255Z,9.55
2019-02-14T21:23:03.560Z,7.95
2019-02-14T21:25:32.794Z,10.63
2019-02-14T21:28:01.945Z,7.97
2019-02-14T21:30:35.666Z,6.42
2019-02-14T21:33:02.815Z,4.92
2019-02-14T21:35:31.918Z,5.35
2019-02-14T21:38:01.017Z,5.58
2019-02-14T21:40:30.090Z,5.20
2019-02-14T21:42:59.084Z,6.45
2019-02-14T21:45:28.170Z,8.03
2019-02-14T21:47:57.181Z,8.08
2019-02-14T21:50:26.214Z,6.33
2019-02-14T21:52:55.241Z,6.00
2019-02-14T21:55:24.336Z,8.23
2019-02-14T21:57:53.495Z,8.40
2019-02-14T22:00:22.545Z,6.87
2019-02-14T22:02:51.598Z,7.87
2019-02-14T22:05:25.190Z,6.70
2019-02-14T22:07:51.377Z,6.50
2019-02-14T22:10:20.438Z,7.17
2019-02-14T22:12:49.801Z,6.15
2019-02-14T22:15:18.829Z,5.17
2019-02-14T22:17:47.881Z,5.58
2019-02-14T22:20:17.032Z,5.80
2019-02-14T22:22:46.028Z,5.03
2019-02-14T22:25:15.106Z,6.25
2019-02-14T22:27:44.118Z,4.97
2019-02-14T22:30:15.200Z,5.22
2019-02-14T22:32:44.299Z,5.12
2019-02-14T22:35:13.302Z,4.53
2019-02-14T22:37:42.307Z,5.85
2019-02-14T22:40:11.208Z,5.50
2019-02-14T22:42:46.632Z,5.42
2019-02-14T22:45:11.033Z,6.30
2019-02-14T22:47:40.049Z,7.65
2019-02-14T22:50:09.186Z,7.75
2019-02-14T22:52:38.311Z,6.25
2019-02-14T22:55:07.815Z,7.80
2019-02-14T22:57:36.776Z,7.37
2019-02-14T23:00:16.035Z,7.58
2019-02-14T23:02:45.021Z,6.80
2019-02-14T23:05:14.026Z,6.33
2019-02-14T23:07:43.052Z,5.87
2019-02-14T23:10:12.032Z,6.70
2019-02-14T23:12:41.011Z,6.70
2019-02-14T23:15:09.991Z,7.42
2019-02-14T23:17:39.064Z,5.95
2019-02-14T23:20:07.999Z,6.40
2019-02-14T23:22:36.990Z,6.33
2019-02-14T23:25:05.947Z,5.00
2019-02-14T23:27:34.893Z,9.55
2019-02-14T23:30:03.773Z,5.83
2019-02-14T23:32:32.686Z,6.83
2019-02-14T23:35:01.679Z,7.50
2019-02-14T23:37:30.687Z,7.40
2019-02-14T23:39:59.676Z,6.22
2019-02-14T23:42:28.697Z,7.00
2019-02-14T23:44:57.709Z,7.30
2019-02-14T23:47:26.739Z,7.78
2019-02-14T23:49:55.901Z,7.15
2019-02-14T23:52:24.930Z,8.35
2019-02-14T23:54:53.963Z,8.50
2019-02-14T23:57:23.029Z,8.93
2019-02-14T23:59:52.013Z,8.45
